This is the latest recevied weather packets stored in our database for station/object DG4MND-4. If no packets are shown the sender has not sent any weather packets the latest 10 day(s).
| Time | Temp. | Humidity | Pressure | Rain* | Wind** | Luminosity | Snow |
|---|---|---|---|---|---|---|---|
| 1777793445 | 18.33° C | 53% | 1015.6 hPa | 0 mm | - | - | - |
| 1777792845 | 17.78° C | 53% | 1015.7 hPa | 0 mm | - | - | - |
| 1777792239 | 17.78° C | 54% | 1015.6 hPa | 0 mm | - | - | - |
| 1777791638 | 18.33° C | 51% | 1015.7 hPa | 0 mm | - | - | - |
| 1777791032 | 17.78° C | 54% | 1015.8 hPa | 0 mm | - | - | - |
| 1777790428 | 17.22° C | 54% | 1015.7 hPa | 0 mm | - | - | - |
| 1777789828 | 16.11° C | 58% | 1015.7 hPa | 0 mm | - | - | - |
| 1777789224 | 15° C | 63% | 1015.6 hPa | 0 mm | - | - | - |
| 1777788618 | 13.89° C | 70% | 1015.6 hPa | 0 mm | - | - | - |
| 1777788075 | 12.78° C | 73% | 1015.6 hPa | 0 mm | - | - | - |
| 1777787472 | 12.78° C | 74% | 1015.5 hPa | 0 mm | - | - | - |
| 1777786871 | 12.78° C | 74% | 1015.4 hPa | 0 mm | - | - | - |
| 1777786268 | 11.67° C | 79% | 1015.5 hPa | 0 mm | - | - | - |
| 1777785662 | 10.56° C | 84% | 1015.7 hPa | 0 mm | - | - | - |
| 1777785060 | 8.89° C | 89% | 1015.6 hPa | 0 mm | - | - | - |
| 1777784457 | 8.33° C | 90% | 1015.5 hPa | 0 mm | - | - | - |
| 1777783851 | 7.78° C | 91% | 1015.7 hPa | 0 mm | - | - | - |
| 1777783251 | 7.78° C | 91% | 1015.7 hPa | 0 mm | - | - | - |
| 1777782647 | 7.22° C | 91% | 1015.7 hPa | 0 mm | - | - | - |
| 1777782040 | 7.22° C | 91% | 1015.6 hPa | 0 mm | - | - | - |
| 1777781437 | 7.22° C | 91% | 1015.6 hPa | 0 mm | - | - | - |
| 1777780834 | 7.22° C | 90% | 1015.6 hPa | 0 mm | - | - | - |
| 1777780260 | 7.78° C | 91% | 1015.7 hPa | 0 mm | - | - | - |
| 1777779660 | 7.22° C | 91% | 1015.6 hPa | 0 mm | - | - | - |
| 1777779053 | 7.22° C | 91% | 1015.6 hPa | 0 mm | - | - | - |
* Rain latest hour (hover to see other rain measurements)
** Current wind speed in m/s (hover to see current wind gust speed)